Skip Navigation Links Skip Navigation Links

Current Weather

Kenosha Regional, Kenosha, Wis.

For information only: do not use for flight planning or navigation.
Latest weather
Observation time Saturday, August 24, 2019 11:53 PM CDT
Local time Sunday, August 25, 2019 12:56 AM CDT
Flight conditions Visual Meteorological Conditions
Winds
Wind direction East (90°)
Wind speed 7 mph
Visibility 10 mi.
Sky condition
Ceiling unlimited
Cloud layer scattered clouds 4,500 ft.
Temperature 66°F
Dewpoint 60°F
Altimeter 30.21 in.Hg
Derived measurements
Relative humidity 81%
Density altitude 1116 ft.
Sea-level pressure 30.20 in.Hg
Remarks
Fully automated report.
Automated weather observing station with precipitation discriminator.
METAR KENW 250453Z AUTO 09006KT 10SM SCT045 19/16 A3021 RMK AO2 SLP227 T01890156

Settings

Location code

InnerDrive.Weather 4.0.6770.0 Release CLR 4.0.30319.42000
Copyright ©2018 Inner Drive Technology. All rights reserved. Portions Copyright ©1986-2018 David Braverman.

Find weather

Site navigation


Skip Navigation Links

Place info

Page info

PayPal - The safer, easier way to pay online!

Return home.

Copyright ©2019 Inner Drive Technology. Purveyors of fine, hand-crafted computer software. Page printed 2019-08-25T05:56:19 UTC.